Racecast

Bryanna Kauffman

Liberty Common (CO) · 12 · CO D3A3A · Compare head to head

Athlete rating 112.8 2021 XC season
Best race 122.8 XC
Races 49
Seasons 5 2018 — 2022

RankedNation #32284·CO #949·CO D3A #247·Team #20 ?

Speed rating — all races

Cross Country

XC speed rating

2021 XC 110.8

Liberty Common (CO) · Grade 12

Date Meet Event Result Place Rating Difficulty PR/SR Flags
2021-10-30 Norris Penrose Event Center 5000m 23:55.8 115th · 7th on team 112.3 +0.067 CSR
2021-10-21 Monfort Park 5000m 22:08.4 27th · 6th on team 115.7 +0.019 SR CSR RSR
2021-10-07 Brush High School 5000m 22:41.7 14th · 7th on team 113.6 +0.012 ★CR SR CSR RSR
2021-09-25 Josephine Jones Park 5000m 23:40.7 14th · 6th on team 109.9 +0.034 ★CR SR CSR
2021-09-18 Lyons Middle/High School 5000m 23:49 43rd · 5th on team 110.5 +0.046 CSR
2021-09-10 Monfort Park 5000m 23:50.3 13th · 4th on team 109.7 +0.019 CSR
2021-09-03 Little America Golf Course 5000m 23:46.7 67th · 5th on team 111.7 +0.065 ★CR CSR RSR
2021-08-28 Fort Collins High School 5000m 23:43 46th · 6th on team 109.0 +0.023 ★CR SR CSR RSR
2021-08-20 Mead High School 3218m 15:47.7 32nd · 7th on team 104.4 +0.058 ★PR ★CR SR CSR RSR

2020 XC 116.4

Liberty Common (CO) · Grade 11

Date Meet Event Result Place Rating Difficulty PR/SR Flags
2020-10-03 River's Edge Natural Area 5000m 22:02.9 6th · 2nd on team 113.3 +0.003
2020-08-22 River's Edge Natural Area 5000m 21:11 1st · 1st on team 119.6 +0.003 ★CR SR CSR RSR

2019 XC 118.5

Liberty Common (CO) · Grade 10

Date Meet Event Result Place Rating Difficulty PR/SR Flags
2019-10-26 Norris Penrose Event Center 5000m 22:00.9 75th · 3rd on team 121.0 +0.067 CSR
2019-10-17 Monfort Park 5000m 20:42.9 9th · 1st on team 122.6 +0.019 ★PR ★CR SR CSR RSR
2019-09-21 Lyons Middle/High School 5000m 22:01 21st · 3rd on team 118.5 +0.046 ★CR SR CSR RSR
2019-08-23 Norris Penrose Event Center 5000m 23:40.1 29th · 3rd on team 112.0 +0.067 SR CSR RSR

2018 XC 115.6

Liberty Common (CO) · Grade 9

Date Meet Event Result Place Rating Difficulty PR/SR Flags
2018-10-27 Norris Penrose Event Center 5000m 21:33.6 64th · 4th on team 122.8 +0.067 ★CR ★R CSR RSR
2018-10-18 Monfort Park 5000m 20:54.3 10th · 1st on team 121.0 +0.019 PR CR R SR CSR RSR
2018-09-29 Mead High School 5000m 22:02 22nd · 3rd on team 114.2 +0.011 PR ★CR SR CSR
2018-09-22 Platte Valley High School 5000m 23:57.4 15th · 3rd on team 108.3 +0.046 ★CR CSR
2018-09-08 Lyons Middle/High School 5000m 22:46 19th · 3rd on team 113.6 +0.046 PR CR SR CSR
2018-08-31 Adams County Regional Park 5000m 23:09 44th · 3rd on team 113.3 +0.048 ★CR CSR
2018-08-24 Norris Penrose Event Center 5000m 22:58.7 22nd · 3rd on team 115.9 +0.067 PR CR R SR CSR RSR

Track & Field

TF speed rating

2022 TF

Liberty Common (CO) · Grade 12

Date Meet Event Result Place Rating Difficulty PR/SR Flags
2022-05-07 Patriot League Meet discus 62-04 -0.005
2022-05-06 Denver North Viking Invitational discus DQ -0.011
2022-05-02 NoCo Series #3 javelin DNS -0.008
2022-05-02 NoCo Series #3 discus 66-09 -0.008
2022-04-09 Fightin' Red Invitational discus 55-09 -0.008
2022-04-02 University Bulldog Invitational discus 63-00 -0.011

2021 TF 110.3

Liberty Common (CO) · Grade 11

Date Meet Event Result Place Rating Difficulty PR/SR Flags
2021-06-18 St. Vrain Meet 1600m 6:19.29 58th · 2nd on team 110.8 -0.015
2021-06-11 Patriot League Meet discus 59-04 -0.011
2021-06-11 Patriot League Meet 3200m 13:51.12 5th · 1st on team 109.8 -0.011 SR
2021-06-05 Dakota Ridge Invitational discus 56-00 -0.011
2021-06-05 Dakota Ridge Invitational 1600m 6:28.03 27th · 3rd on team 108.7 -0.011
2021-06-01 No-Name Invitational discus 71-04 -0.015
2021-06-01 No-Name Invitational shot 20-01.25 -0.015
2021-06-01 No-Name Invitational 3200m 14:09.02 4th · 3rd on team 107.1 -0.015 SR
2021-05-27 NOCO Series Meet #2 discus 64-00 -0.008
2021-05-27 NOCO Series Meet #2 shot 19-10.50 -0.008
2021-05-27 NOCO Series Meet #2 1600m 6:14.88 16th · 2nd on team 112.9 -0.008 SR RSR
2021-05-21 Fightin' Red Invitational shot 21-01.50 -0.008
2021-05-21 Fightin' Red Invitational 1600m 6:15.62 5th · 1st on team 112.7 -0.008 SR RSR
2021-05-15 Platte Valley Meet #1 shot 19-06.50 -0.010

2019 TF 113.1

Liberty Common (CO) · Grade 9

Date Meet Event Result Place Rating Difficulty PR/SR Flags
2019-05-11 St. Vrain Invitational 1600m 6:12.87 66th · 2nd on team 113.5 -0.011 ★PR SR
2019-05-04 Patriot League Meet 3200m 13:15.5 5th · 2nd on team 115.6 -0.004 ★PR SR RSR
2019-05-04 Patriot League Meet 1600m 6:16.35 10th · 3rd on team 113.1 -0.004 PR SR
2019-04-26 No-Name Invitational 3200m 13:22.99 9th · 2nd on team 114.7 -0.007 PR SR RSR
2019-04-09 Randy Yaussi City Championships 1600m 6:19.51 10th · 1st on team 111.7 -0.009 PR SR
2019-04-06 Fightin' Red Invitational 1600m 6:21.96 7th · 3rd on team 111.0 -0.008 PR SR
2019-03-30 Altitude Running Invitational 3200m 13:34.89 19th · 2nd on team 112.0 -0.012 PR SR RSR